sensor_id;sensor_type;location;lat;lon;timestamp;P1;durP1;ratioP1;P2;durP2;ratioP2
23596;SDS011;40226;50.874;4.394;2024-03-22T00:01:43;69.97;;;36.03;;
23596;SDS011;40226;50.874;4.394;2024-03-22T00:04:09;68.88;;;37.00;;
23596;SDS011;40226;50.874;4.394;2024-03-22T00:06:35;63.25;;;34.28;;
23596;SDS011;40226;50.874;4.394;2024-03-22T00:09:03;67.03;;;34.83;;
23596;SDS011;40226;50.874;4.394;2024-03-22T00:11:30;69.03;;;38.20;;
23596;SDS011;40226;50.874;4.394;2024-03-22T00:13:55;65.07;;;35.00;;
23596;SDS011;40226;50.874;4.394;2024-03-22T00:16:21;63.72;;;34.17;;
23596;SDS011;40226;50.874;4.394;2024-03-22T00:18:47;58.33;;;32.47;;
23596;SDS011;40226;50.874;4.394;2024-03-22T00:21:13;61.42;;;33.35;;
23596;SDS011;40226;50.874;4.394;2024-03-22T00:23:38;63.65;;;34.10;;
23596;SDS011;40226;50.874;4.394;2024-03-22T00:26:04;65.07;;;34.97;;
23596;SDS011;40226;50.874;4.394;2024-03-22T00:28:32;60.95;;;33.05;;
23596;SDS011;40226;50.874;4.394;2024-03-22T00:30:58;61.83;;;33.90;;
23596;SDS011;40226;50.874;4.394;2024-03-22T00:33:24;63.45;;;34.75;;
23596;SDS011;40226;50.874;4.394;2024-03-22T00:35:50;60.13;;;33.65;;
23596;SDS011;40226;50.874;4.394;2024-03-22T00:38:18;64.30;;;34.60;;
23596;SDS011;40226;50.874;4.394;2024-03-22T00:40:43;70.53;;;37.30;;
23596;SDS011;40226;50.874;4.394;2024-03-22T00:43:09;62.05;;;34.13;;
23596;SDS011;40226;50.874;4.394;2024-03-22T00:45:35;65.03;;;35.90;;
23596;SDS011;40226;50.874;4.394;2024-03-22T00:48:00;61.90;;;35.60;;
23596;SDS011;40226;50.874;4.394;2024-03-22T00:50:26;66.38;;;35.45;;
23596;SDS011;40226;50.874;4.394;2024-03-22T00:52:52;65.05;;;37.88;;
23596;SDS011;40226;50.874;4.394;2024-03-22T00:55:20;64.50;;;36.35;;
23596;SDS011;40226;50.874;4.394;2024-03-22T00:57:46;68.45;;;36.92;;
23596;SDS011;40226;50.874;4.394;2024-03-22T01:00:12;69.05;;;38.08;;
23596;SDS011;40226;50.874;4.394;2024-03-22T01:02:41;63.33;;;33.88;;
23596;SDS011;40226;50.874;4.394;2024-03-22T01:05:07;71.80;;;36.95;;
23596;SDS011;40226;50.874;4.394;2024-03-22T01:07:33;68.60;;;36.22;;
23596;SDS011;40226;50.874;4.394;2024-03-22T01:10:02;70.63;;;34.92;;
23596;SDS011;40226;50.874;4.394;2024-03-22T01:12:28;70.40;;;36.40;;
23596;SDS011;40226;50.874;4.394;2024-03-22T01:14:54;70.82;;;35.90;;
23596;SDS011;40226;50.874;4.394;2024-03-22T01:17:20;75.38;;;38.58;;
23596;SDS011;40226;50.874;4.394;2024-03-22T01:19:46;76.78;;;37.38;;
23596;SDS011;40226;50.874;4.394;2024-03-22T01:22:11;74.88;;;38.90;;
23596;SDS011;40226;50.874;4.394;2024-03-22T01:24:37;72.88;;;39.65;;
23596;SDS011;40226;50.874;4.394;2024-03-22T01:27:05;71.90;;;39.30;;
23596;SDS011;40226;50.874;4.394;2024-03-22T01:29:31;65.47;;;37.13;;
23596;SDS011;40226;50.874;4.394;2024-03-22T01:32:02;70.60;;;39.45;;
23596;SDS011;40226;50.874;4.394;2024-03-22T01:34:28;76.00;;;39.30;;
23596;SDS011;40226;50.874;4.394;2024-03-22T01:36:54;69.43;;;38.47;;
23596;SDS011;40226;50.874;4.394;2024-03-22T01:39:20;69.60;;;38.30;;
23596;SDS011;40226;50.874;4.394;2024-03-22T01:41:49;72.65;;;38.80;;
23596;SDS011;40226;50.874;4.394;2024-03-22T01:44:18;70.95;;;39.08;;
23596;SDS011;40226;50.874;4.394;2024-03-22T01:46:44;75.07;;;39.97;;
23596;SDS011;40226;50.874;4.394;2024-03-22T01:49:15;75.85;;;40.22;;
23596;SDS011;40226;50.874;4.394;2024-03-22T01:51:41;72.38;;;39.65;;
23596;SDS011;40226;50.874;4.394;2024-03-22T01:54:11;82.53;;;41.80;;
23596;SDS011;40226;50.874;4.394;2024-03-22T01:56:37;73.53;;;37.92;;
23596;SDS011;40226;50.874;4.394;2024-03-22T01:59:04;73.00;;;37.53;;
23596;SDS011;40226;50.874;4.394;2024-03-22T02:01:30;70.50;;;36.30;;
23596;SDS011;40226;50.874;4.394;2024-03-22T02:03:59;72.30;;;36.42;;
23596;SDS011;40226;50.874;4.394;2024-03-22T02:06:25;74.05;;;37.55;;
23596;SDS011;40226;50.874;4.394;2024-03-22T02:08:50;71.90;;;36.78;;
23596;SDS011;40226;50.874;4.394;2024-03-22T02:11:16;67.18;;;36.17;;
23596;SDS011;40226;50.874;4.394;2024-03-22T02:13:42;66.72;;;36.50;;
23596;SDS011;40226;50.874;4.394;2024-03-22T02:16:10;70.28;;;36.05;;
23596;SDS011;40226;50.874;4.394;2024-03-22T02:18:36;70.57;;;36.92;;
23596;SDS011;40226;50.874;4.394;2024-03-22T02:21:02;73.22;;;35.33;;
23596;SDS011;40226;50.874;4.394;2024-03-22T02:23:38;69.80;;;35.00;;
23596;SDS011;40226;50.874;4.394;2024-03-22T02:26:04;69.47;;;36.25;;
23596;SDS011;40226;50.874;4.394;2024-03-22T02:28:32;67.18;;;35.35;;
23596;SDS011;40226;50.874;4.394;2024-03-22T02:31:01;65.47;;;33.92;;
23596;SDS011;40226;50.874;4.394;2024-03-22T02:33:28;70.07;;;35.05;;
23596;SDS011;40226;50.874;4.394;2024-03-22T02:35:54;70.88;;;36.63;;
23596;SDS011;40226;50.874;4.394;2024-03-22T02:38:19;70.35;;;34.65;;
23596;SDS011;40226;50.874;4.394;2024-03-22T02:40:45;70.88;;;36.15;;
23596;SDS011;40226;50.874;4.394;2024-03-22T02:43:13;66.70;;;35.15;;
23596;SDS011;40226;50.874;4.394;2024-03-22T02:45:39;69.53;;;35.65;;
23596;SDS011;40226;50.874;4.394;2024-03-22T02:48:05;62.75;;;33.05;;
23596;SDS011;40226;50.874;4.394;2024-03-22T02:50:35;65.95;;;33.58;;
23596;SDS011;40226;50.874;4.394;2024-03-22T02:53:01;64.22;;;32.85;;
23596;SDS011;40226;50.874;4.394;2024-03-22T02:55:28;61.83;;;33.50;;
23596;SDS011;40226;50.874;4.394;2024-03-22T02:58:04;67.70;;;34.40;;
23596;SDS011;40226;50.874;4.394;2024-03-22T03:00:30;64.22;;;34.92;;
23596;SDS011;40226;50.874;4.394;2024-03-22T03:02:56;61.97;;;31.30;;
23596;SDS011;40226;50.874;4.394;2024-03-22T03:05:24;61.95;;;33.97;;
23596;SDS011;40226;50.874;4.394;2024-03-22T03:07:50;62.42;;;33.70;;
23596;SDS011;40226;50.874;4.394;2024-03-22T03:10:15;65.22;;;32.35;;
23596;SDS011;40226;50.874;4.394;2024-03-22T03:12:42;65.82;;;33.60;;
23596;SDS011;40226;50.874;4.394;2024-03-22T03:15:07;56.55;;;31.63;;
23596;SDS011;40226;50.874;4.394;2024-03-22T03:17:33;57.63;;;30.38;;
23596;SDS011;40226;50.874;4.394;2024-03-22T03:19:59;52.60;;;27.95;;
23596;SDS011;40226;50.874;4.394;2024-03-22T03:22:24;62.42;;;31.02;;
23596;SDS011;40226;50.874;4.394;2024-03-22T03:24:50;61.70;;;32.58;;
23596;SDS011;40226;50.874;4.394;2024-03-22T03:27:16;60.70;;;30.13;;
23596;SDS011;40226;50.874;4.394;2024-03-22T03:29:41;63.83;;;31.42;;
23596;SDS011;40226;50.874;4.394;2024-03-22T03:32:07;63.38;;;33.30;;
23596;SDS011;40226;50.874;4.394;2024-03-22T03:34:33;53.30;;;29.08;;
23596;SDS011;40226;50.874;4.394;2024-03-22T03:36:58;56.70;;;30.73;;
23596;SDS011;40226;50.874;4.394;2024-03-22T03:39:26;57.80;;;29.60;;
23596;SDS011;40226;50.874;4.394;2024-03-22T03:41:54;61.85;;;30.75;;
23596;SDS011;40226;50.874;4.394;2024-03-22T03:44:22;63.25;;;32.30;;
23596;SDS011;40226;50.874;4.394;2024-03-22T03:46:48;57.53;;;30.77;;
23596;SDS011;40226;50.874;4.394;2024-03-22T03:49:14;58.75;;;28.88;;
23596;SDS011;40226;50.874;4.394;2024-03-22T03:51:42;56.15;;;27.40;;
23596;SDS011;40226;50.874;4.394;2024-03-22T03:54:08;53.92;;;28.08;;
23596;SDS011;40226;50.874;4.394;2024-03-22T03:56:33;49.72;;;26.75;;
23596;SDS011;40226;50.874;4.394;2024-03-22T03:58:59;49.00;;;27.02;;
23596;SDS011;40226;50.874;4.394;2024-03-22T04:01:25;50.78;;;25.98;;
23596;SDS011;40226;50.874;4.394;2024-03-22T04:03:50;46.22;;;24.77;;
23596;SDS011;40226;50.874;4.394;2024-03-22T04:06:16;44.97;;;23.40;;
23596;SDS011;40226;50.874;4.394;2024-03-22T04:08:42;51.03;;;25.20;;
23596;SDS011;40226;50.874;4.394;2024-03-22T04:11:11;44.97;;;21.27;;
23596;SDS011;40226;50.874;4.394;2024-03-22T04:13:36;43.70;;;24.10;;
23596;SDS011;40226;50.874;4.394;2024-03-22T04:16:02;46.10;;;25.00;;
23596;SDS011;40226;50.874;4.394;2024-03-22T04:18:31;47.83;;;25.15;;
23596;SDS011;40226;50.874;4.394;2024-03-22T04:20:57;47.22;;;24.50;;
23596;SDS011;40226;50.874;4.394;2024-03-22T04:23:24;44.28;;;22.00;;
23596;SDS011;40226;50.874;4.394;2024-03-22T04:25:56;49.10;;;24.95;;
23596;SDS011;40226;50.874;4.394;2024-03-22T04:28:26;43.10;;;22.73;;
23596;SDS011;40226;50.874;4.394;2024-03-22T04:30:56;47.38;;;22.98;;
23596;SDS011;40226;50.874;4.394;2024-03-22T04:33:26;44.28;;;23.23;;
23596;SDS011;40226;50.874;4.394;2024-03-22T04:35:52;39.90;;;21.55;;
23596;SDS011;40226;50.874;4.394;2024-03-22T04:38:19;45.00;;;22.27;;
23596;SDS011;40226;50.874;4.394;2024-03-22T04:40:47;44.17;;;22.08;;
23596;SDS011;40226;50.874;4.394;2024-03-22T04:43:14;44.83;;;20.80;;
23596;SDS011;40226;50.874;4.394;2024-03-22T04:45:44;46.38;;;21.35;;
23596;SDS011;40226;50.874;4.394;2024-03-22T04:48:12;39.92;;;21.73;;
23596;SDS011;40226;50.874;4.394;2024-03-22T04:50:40;45.03;;;23.20;;
23596;SDS011;40226;50.874;4.394;2024-03-22T04:53:06;43.80;;;21.67;;
23596;SDS011;40226;50.874;4.394;2024-03-22T04:55:32;47.55;;;20.95;;
23596;SDS011;40226;50.874;4.394;2024-03-22T04:57:58;43.10;;;22.23;;
23596;SDS011;40226;50.874;4.394;2024-03-22T05:00:24;39.47;;;19.88;;
23596;SDS011;40226;50.874;4.394;2024-03-22T05:02:52;42.67;;;21.67;;
23596;SDS011;40226;50.874;4.394;2024-03-22T05:05:18;41.20;;;22.30;;
23596;SDS011;40226;50.874;4.394;2024-03-22T05:07:44;40.20;;;20.75;;
23596;SDS011;40226;50.874;4.394;2024-03-22T05:10:09;40.70;;;20.88;;
23596;SDS011;40226;50.874;4.394;2024-03-22T05:12:36;39.30;;;19.23;;
23596;SDS011;40226;50.874;4.394;2024-03-22T05:15:02;43.25;;;23.35;;
23596;SDS011;40226;50.874;4.394;2024-03-22T05:17:28;44.15;;;22.38;;
23596;SDS011;40226;50.874;4.394;2024-03-22T05:19:56;40.22;;;21.42;;
23596;SDS011;40226;50.874;4.394;2024-03-22T05:22:22;41.75;;;21.92;;
23596;SDS011;40226;50.874;4.394;2024-03-22T05:24:48;41.20;;;20.13;;
23596;SDS011;40226;50.874;4.394;2024-03-22T05:27:14;42.90;;;21.33;;
23596;SDS011;40226;50.874;4.394;2024-03-22T05:29:40;42.40;;;19.50;;
23596;SDS011;40226;50.874;4.394;2024-03-22T05:32:06;42.63;;;22.48;;
23596;SDS011;40226;50.874;4.394;2024-03-22T05:34:32;44.25;;;22.63;;
23596;SDS011;40226;50.874;4.394;2024-03-22T05:37:00;41.22;;;19.48;;
23596;SDS011;40226;50.874;4.394;2024-03-22T05:39:26;42.88;;;22.30;;
23596;SDS011;40226;50.874;4.394;2024-03-22T05:41:52;43.88;;;21.65;;
23596;SDS011;40226;50.874;4.394;2024-03-22T05:44:21;45.17;;;21.83;;
23596;SDS011;40226;50.874;4.394;2024-03-22T05:46:47;44.17;;;21.67;;
23596;SDS011;40226;50.874;4.394;2024-03-22T05:49:13;38.72;;;20.73;;
23596;SDS011;40226;50.874;4.394;2024-03-22T05:51:39;41.17;;;20.83;;
23596;SDS011;40226;50.874;4.394;2024-03-22T05:54:04;39.45;;;19.38;;
23596;SDS011;40226;50.874;4.394;2024-03-22T05:56:31;43.28;;;21.48;;
23596;SDS011;40226;50.874;4.394;2024-03-22T05:58:57;37.63;;;19.80;;
23596;SDS011;40226;50.874;4.394;2024-03-22T06:01:23;39.33;;;21.45;;
23596;SDS011;40226;50.874;4.394;2024-03-22T06:03:48;41.70;;;21.83;;
23596;SDS011;40226;50.874;4.394;2024-03-22T06:06:14;41.88;;;21.77;;
23596;SDS011;40226;50.874;4.394;2024-03-22T06:08:41;43.40;;;21.38;;
23596;SDS011;40226;50.874;4.394;2024-03-22T06:11:08;38.80;;;20.52;;
23596;SDS011;40226;50.874;4.394;2024-03-22T06:13:34;43.90;;;22.42;;
23596;SDS011;40226;50.874;4.394;2024-03-22T06:16:01;44.72;;;22.25;;
23596;SDS011;40226;50.874;4.394;2024-03-22T06:18:27;45.28;;;22.13;;
23596;SDS011;40226;50.874;4.394;2024-03-22T06:20:53;45.92;;;22.80;;
23596;SDS011;40226;50.874;4.394;2024-03-22T06:23:20;49.05;;;24.70;;
23596;SDS011;40226;50.874;4.394;2024-03-22T06:25:52;50.10;;;22.95;;
23596;SDS011;40226;50.874;4.394;2024-03-22T06:28:19;49.92;;;23.23;;
23596;SDS011;40226;50.874;4.394;2024-03-22T06:30:45;45.63;;;22.15;;
23596;SDS011;40226;50.874;4.394;2024-03-22T06:33:12;44.75;;;22.15;;
23596;SDS011;40226;50.874;4.394;2024-03-22T06:35:37;43.33;;;20.77;;
23596;SDS011;40226;50.874;4.394;2024-03-22T06:38:03;46.65;;;21.17;;
23596;SDS011;40226;50.874;4.394;2024-03-22T06:40:29;49.10;;;22.58;;
23596;SDS011;40226;50.874;4.394;2024-03-22T06:42:55;47.05;;;22.40;;
23596;SDS011;40226;50.874;4.394;2024-03-22T06:45:21;43.70;;;21.13;;
23596;SDS011;40226;50.874;4.394;2024-03-22T06:47:50;46.63;;;21.95;;
23596;SDS011;40226;50.874;4.394;2024-03-22T06:50:16;42.13;;;18.67;;
23596;SDS011;40226;50.874;4.394;2024-03-22T06:52:43;45.50;;;21.42;;
23596;SDS011;40226;50.874;4.394;2024-03-22T06:55:10;38.60;;;16.45;;
23596;SDS011;40226;50.874;4.394;2024-03-22T06:57:37;52.78;;;21.85;;
23596;SDS011;40226;50.874;4.394;2024-03-22T07:00:03;44.40;;;19.75;;
23596;SDS011;40226;50.874;4.394;2024-03-22T07:02:30;37.33;;;16.75;;
23596;SDS011;40226;50.874;4.394;2024-03-22T07:04:58;38.55;;;18.58;;
23596;SDS011;40226;50.874;4.394;2024-03-22T07:07:24;49.63;;;20.52;;
23596;SDS011;40226;50.874;4.394;2024-03-22T07:09:50;38.15;;;17.17;;
23596;SDS011;40226;50.874;4.394;2024-03-22T07:12:15;46.15;;;20.25;;
23596;SDS011;40226;50.874;4.394;2024-03-22T07:14:41;44.00;;;19.17;;
23596;SDS011;40226;50.874;4.394;2024-03-22T07:17:06;39.55;;;17.42;;
23596;SDS011;40226;50.874;4.394;2024-03-22T07:19:32;38.35;;;17.88;;
23596;SDS011;40226;50.874;4.394;2024-03-22T07:21:59;39.15;;;17.02;;
23596;SDS011;40226;50.874;4.394;2024-03-22T07:24:25;30.38;;;14.73;;
23596;SDS011;40226;50.874;4.394;2024-03-22T07:26:51;36.35;;;16.77;;
23596;SDS011;40226;50.874;4.394;2024-03-22T07:29:19;36.60;;;18.05;;
23596;SDS011;40226;50.874;4.394;2024-03-22T07:31:44;40.25;;;17.75;;
23596;SDS011;40226;50.874;4.394;2024-03-22T07:34:10;38.97;;;18.70;;
23596;SDS011;40226;50.874;4.394;2024-03-22T07:36:39;40.28;;;18.58;;
23596;SDS011;40226;50.874;4.394;2024-03-22T07:39:05;39.95;;;18.02;;
23596;SDS011;40226;50.874;4.394;2024-03-22T07:41:34;43.05;;;18.98;;
23596;SDS011;40226;50.874;4.394;2024-03-22T07:44:00;36.38;;;17.48;;
23596;SDS011;40226;50.874;4.394;2024-03-22T07:46:26;36.85;;;15.85;;
23596;SDS011;40226;50.874;4.394;2024-03-22T07:48:53;35.13;;;17.30;;
23596;SDS011;40226;50.874;4.394;2024-03-22T07:51:19;39.47;;;19.05;;
23596;SDS011;40226;50.874;4.394;2024-03-22T07:53:45;31.73;;;14.73;;
23596;SDS011;40226;50.874;4.394;2024-03-22T07:56:11;33.35;;;16.45;;
23596;SDS011;40226;50.874;4.394;2024-03-22T07:58:38;31.63;;;15.52;;
23596;SDS011;40226;50.874;4.394;2024-03-22T08:01:04;36.08;;;15.25;;
23596;SDS011;40226;50.874;4.394;2024-03-22T08:03:32;28.55;;;13.45;;
23596;SDS011;40226;50.874;4.394;2024-03-22T08:05:58;26.55;;;13.65;;
23596;SDS011;40226;50.874;4.394;2024-03-22T08:08:23;28.33;;;13.02;;
23596;SDS011;40226;50.874;4.394;2024-03-22T08:10:49;24.83;;;13.52;;
23596;SDS011;40226;50.874;4.394;2024-03-22T08:13:19;28.48;;;14.85;;
23596;SDS011;40226;50.874;4.394;2024-03-22T08:15:44;29.70;;;13.85;;
23596;SDS011;40226;50.874;4.394;2024-03-22T08:18:11;28.75;;;13.93;;
23596;SDS011;40226;50.874;4.394;2024-03-22T08:20:40;26.67;;;13.77;;
23596;SDS011;40226;50.874;4.394;2024-03-22T08:23:06;34.90;;;14.55;;
23596;SDS011;40226;50.874;4.394;2024-03-22T08:25:32;30.20;;;14.35;;
23596;SDS011;40226;50.874;4.394;2024-03-22T08:28:02;27.48;;;15.10;;
23596;SDS011;40226;50.874;4.394;2024-03-22T08:30:30;27.77;;;14.02;;
23596;SDS011;40226;50.874;4.394;2024-03-22T08:32:56;26.23;;;14.80;;
23596;SDS011;40226;50.874;4.394;2024-03-22T08:35:21;29.88;;;16.58;;
23596;SDS011;40226;50.874;4.394;2024-03-22T08:37:47;34.17;;;17.67;;
23596;SDS011;40226;50.874;4.394;2024-03-22T08:40:13;37.17;;;18.67;;
23596;SDS011;40226;50.874;4.394;2024-03-22T08:42:39;38.65;;;19.92;;
23596;SDS011;40226;50.874;4.394;2024-03-22T08:45:05;40.38;;;19.27;;
23596;SDS011;40226;50.874;4.394;2024-03-22T08:47:31;43.58;;;21.75;;
23596;SDS011;40226;50.874;4.394;2024-03-22T08:50:01;40.13;;;20.08;;
23596;SDS011;40226;50.874;4.394;2024-03-22T08:52:26;47.90;;;24.33;;
23596;SDS011;40226;50.874;4.394;2024-03-22T08:54:57;42.92;;;21.95;;
23596;SDS011;40226;50.874;4.394;2024-03-22T08:57:22;41.28;;;22.17;;
23596;SDS011;40226;50.874;4.394;2024-03-22T08:59:51;39.03;;;22.45;;
23596;SDS011;40226;50.874;4.394;2024-03-22T09:02:16;43.70;;;21.88;;
23596;SDS011;40226;50.874;4.394;2024-03-22T09:04:42;39.88;;;22.90;;
23596;SDS011;40226;50.874;4.394;2024-03-22T09:07:08;38.97;;;21.77;;
23596;SDS011;40226;50.874;4.394;2024-03-22T09:09:33;42.42;;;21.67;;
23596;SDS011;40226;50.874;4.394;2024-03-22T09:11:59;39.38;;;20.38;;
23596;SDS011;40226;50.874;4.394;2024-03-22T09:14:24;41.80;;;21.05;;
23596;SDS011;40226;50.874;4.394;2024-03-22T09:16:50;40.28;;;21.45;;
23596;SDS011;40226;50.874;4.394;2024-03-22T09:19:16;40.58;;;20.08;;
23596;SDS011;40226;50.874;4.394;2024-03-22T09:21:42;34.75;;;20.08;;
23596;SDS011;40226;50.874;4.394;2024-03-22T09:24:08;37.63;;;19.55;;
23596;SDS011;40226;50.874;4.394;2024-03-22T09:26:34;33.13;;;20.05;;
23596;SDS011;40226;50.874;4.394;2024-03-22T09:29:00;38.75;;;19.80;;
23596;SDS011;40226;50.874;4.394;2024-03-22T09:31:26;38.78;;;21.30;;
23596;SDS011;40226;50.874;4.394;2024-03-22T09:33:52;35.67;;;18.75;;
23596;SDS011;40226;50.874;4.394;2024-03-22T09:36:18;37.67;;;21.08;;
23596;SDS011;40226;50.874;4.394;2024-03-22T09:38:43;39.40;;;21.48;;
23596;SDS011;40226;50.874;4.394;2024-03-22T09:41:09;34.22;;;20.40;;
23596;SDS011;40226;50.874;4.394;2024-03-22T09:43:35;37.72;;;20.92;;
23596;SDS011;40226;50.874;4.394;2024-03-22T09:46:05;33.92;;;19.42;;
23596;SDS011;40226;50.874;4.394;2024-03-22T09:48:31;39.83;;;20.55;;
23596;SDS011;40226;50.874;4.394;2024-03-22T09:50:58;40.15;;;20.60;;
23596;SDS011;40226;50.874;4.394;2024-03-22T09:53:25;40.10;;;20.05;;
23596;SDS011;40226;50.874;4.394;2024-03-22T09:55:54;36.10;;;20.95;;
23596;SDS011;40226;50.874;4.394;2024-03-22T09:58:23;44.63;;;22.88;;
23596;SDS011;40226;50.874;4.394;2024-03-22T10:00:49;47.83;;;25.13;;
23596;SDS011;40226;50.874;4.394;2024-03-22T10:03:15;54.90;;;29.75;;
23596;SDS011;40226;50.874;4.394;2024-03-22T10:05:41;43.03;;;23.70;;
23596;SDS011;40226;50.874;4.394;2024-03-22T10:08:06;43.15;;;22.95;;
23596;SDS011;40226;50.874;4.394;2024-03-22T10:10:34;39.03;;;21.13;;
23596;SDS011;40226;50.874;4.394;2024-03-22T10:13:00;42.58;;;21.60;;
23596;SDS011;40226;50.874;4.394;2024-03-22T10:15:26;40.88;;;21.05;;
23596;SDS011;40226;50.874;4.394;2024-03-22T10:17:56;38.05;;;21.48;;
23596;SDS011;40226;50.874;4.394;2024-03-22T10:20:22;36.75;;;20.77;;
23596;SDS011;40226;50.874;4.394;2024-03-22T10:22:57;39.22;;;21.10;;
23596;SDS011;40226;50.874;4.394;2024-03-22T10:25:25;36.85;;;19.88;;
23596;SDS011;40226;50.874;4.394;2024-03-22T10:27:53;34.45;;;19.60;;
23596;SDS011;40226;50.874;4.394;2024-03-22T10:30:19;46.50;;;21.77;;
23596;SDS011;40226;50.874;4.394;2024-03-22T10:32:46;36.22;;;21.10;;
23596;SDS011;40226;50.874;4.394;2024-03-22T10:35:13;40.22;;;20.75;;
23596;SDS011;40226;50.874;4.394;2024-03-22T10:37:40;37.03;;;19.33;;
23596;SDS011;40226;50.874;4.394;2024-03-22T10:40:07;35.13;;;19.05;;
23596;SDS011;40226;50.874;4.394;2024-03-22T10:42:39;36.10;;;20.02;;
23596;SDS011;40226;50.874;4.394;2024-03-22T10:45:07;37.63;;;20.20;;
23596;SDS011;40226;50.874;4.394;2024-03-22T10:47:34;37.40;;;20.52;;
23596;SDS011;40226;50.874;4.394;2024-03-22T10:50:10;33.55;;;20.75;;
23596;SDS011;40226;50.874;4.394;2024-03-22T10:57:57;36.67;;;20.80;;
23596;SDS011;40226;50.874;4.394;2024-03-22T11:00:27;35.67;;;20.02;;
23596;SDS011;40226;50.874;4.394;2024-03-22T11:02:57;35.30;;;20.55;;
23596;SDS011;40226;50.874;4.394;2024-03-22T11:05:22;43.83;;;21.45;;
23596;SDS011;40226;50.874;4.394;2024-03-22T11:08:03;36.75;;;21.67;;
23596;SDS011;40226;50.874;4.394;2024-03-22T11:10:34;35.45;;;20.40;;
23596;SDS011;40226;50.874;4.394;2024-03-22T11:13:04;34.20;;;21.50;;
23596;SDS011;40226;50.874;4.394;2024-03-22T11:15:31;41.92;;;20.65;;
23596;SDS011;40226;50.874;4.394;2024-03-22T11:17:58;34.45;;;20.45;;
23596;SDS011;40226;50.874;4.394;2024-03-22T11:20:28;38.05;;;20.65;;
23596;SDS011;40226;50.874;4.394;2024-03-22T11:22:55;35.78;;;21.50;;
23596;SDS011;40226;50.874;4.394;2024-03-22T11:25:21;35.22;;;20.60;;
23596;SDS011;40226;50.874;4.394;2024-03-22T11:27:47;33.17;;;21.02;;
23596;SDS011;40226;50.874;4.394;2024-03-22T11:30:12;36.17;;;20.90;;
23596;SDS011;40226;50.874;4.394;2024-03-22T11:32:39;35.15;;;19.40;;
23596;SDS011;40226;50.874;4.394;2024-03-22T11:35:11;35.97;;;19.10;;
23596;SDS011;40226;50.874;4.394;2024-03-22T11:37:38;26.52;;;14.88;;
23596;SDS011;40226;50.874;4.394;2024-03-22T11:40:05;33.45;;;17.13;;
23596;SDS011;40226;50.874;4.394;2024-03-22T11:42:35;32.67;;;14.85;;
23596;SDS011;40226;50.874;4.394;2024-03-22T11:45:02;30.08;;;15.55;;
23596;SDS011;40226;50.874;4.394;2024-03-22T11:47:32;34.03;;;16.67;;
23596;SDS011;40226;50.874;4.394;2024-03-22T11:49:58;31.67;;;17.67;;
23596;SDS011;40226;50.874;4.394;2024-03-22T11:52:28;34.33;;;17.67;;
23596;SDS011;40226;50.874;4.394;2024-03-22T11:54:55;35.28;;;18.60;;
23596;SDS011;40226;50.874;4.394;2024-03-22T11:57:22;33.38;;;18.65;;
23596;SDS011;40226;50.874;4.394;2024-03-22T11:59:48;33.75;;;17.42;;
23596;SDS011;40226;50.874;4.394;2024-03-22T12:02:14;27.50;;;16.17;;
23596;SDS011;40226;50.874;4.394;2024-03-22T12:04:40;30.02;;;15.23;;
23596;SDS011;40226;50.874;4.394;2024-03-22T12:07:10;30.25;;;16.63;;
23596;SDS011;40226;50.874;4.394;2024-03-22T12:09:44;34.22;;;18.05;;
23596;SDS011;40226;50.874;4.394;2024-03-22T12:12:11;39.85;;;18.70;;
23596;SDS011;40226;50.874;4.394;2024-03-22T12:14:38;37.08;;;17.25;;
23596;SDS011;40226;50.874;4.394;2024-03-22T12:17:05;29.45;;;17.02;;
23596;SDS011;40226;50.874;4.394;2024-03-22T12:19:31;32.30;;;18.10;;
23596;SDS011;40226;50.874;4.394;2024-03-22T12:21:57;34.33;;;17.58;;
23596;SDS011;40226;50.874;4.394;2024-03-22T12:24:24;31.60;;;17.13;;
23596;SDS011;40226;50.874;4.394;2024-03-22T12:26:53;29.80;;;16.17;;
23596;SDS011;40226;50.874;4.394;2024-03-22T12:29:19;30.20;;;15.13;;
23596;SDS011;40226;50.874;4.394;2024-03-22T12:31:45;27.88;;;14.00;;
23596;SDS011;40226;50.874;4.394;2024-03-22T12:34:12;27.20;;;12.98;;
23596;SDS011;40226;50.874;4.394;2024-03-22T12:36:37;28.92;;;13.82;;
23596;SDS011;40226;50.874;4.394;2024-03-22T12:39:03;26.50;;;13.50;;
23596;SDS011;40226;50.874;4.394;2024-03-22T12:41:29;26.13;;;13.18;;
23596;SDS011;40226;50.874;4.394;2024-03-22T12:43:56;30.02;;;14.65;;
23596;SDS011;40226;50.874;4.394;2024-03-22T12:46:21;25.10;;;13.32;;
23596;SDS011;40226;50.874;4.394;2024-03-22T12:48:47;24.75;;;14.15;;
23596;SDS011;40226;50.874;4.394;2024-03-22T12:51:13;25.08;;;14.55;;
23596;SDS011;40226;50.874;4.394;2024-03-22T12:53:39;28.15;;;14.45;;
23596;SDS011;40226;50.874;4.394;2024-03-22T12:56:05;30.55;;;14.50;;
23596;SDS011;40226;50.874;4.394;2024-03-22T12:58:32;30.65;;;14.52;;
23596;SDS011;40226;50.874;4.394;2024-03-22T13:00:57;27.25;;;14.75;;
23596;SDS011;40226;50.874;4.394;2024-03-22T13:03:25;29.17;;;14.90;;
23596;SDS011;40226;50.874;4.394;2024-03-22T13:05:51;30.23;;;15.20;;
23596;SDS011;40226;50.874;4.394;2024-03-22T13:08:17;28.35;;;13.23;;
23596;SDS011;40226;50.874;4.394;2024-03-22T13:10:44;26.20;;;13.02;;
23596;SDS011;40226;50.874;4.394;2024-03-22T13:13:10;26.80;;;13.18;;
23596;SDS011;40226;50.874;4.394;2024-03-22T13:15:36;25.08;;;12.57;;
23596;SDS011;40226;50.874;4.394;2024-03-22T13:18:03;26.80;;;12.02;;
23596;SDS011;40226;50.874;4.394;2024-03-22T13:20:29;29.23;;;12.93;;
23596;SDS011;40226;50.874;4.394;2024-03-22T13:22:55;23.25;;;11.85;;
23596;SDS011;40226;50.874;4.394;2024-03-22T13:25:21;21.17;;;11.38;;
23596;SDS011;40226;50.874;4.394;2024-03-22T13:27:47;24.92;;;11.40;;
23596;SDS011;40226;50.874;4.394;2024-03-22T13:30:13;21.80;;;11.23;;
23596;SDS011;40226;50.874;4.394;2024-03-22T13:32:40;22.70;;;10.43;;
23596;SDS011;40226;50.874;4.394;2024-03-22T13:35:06;21.75;;;11.35;;
23596;SDS011;40226;50.874;4.394;2024-03-22T13:37:32;28.38;;;11.30;;
23596;SDS011;40226;50.874;4.394;2024-03-22T13:39:57;21.67;;;11.07;;
23596;SDS011;40226;50.874;4.394;2024-03-22T13:42:23;24.42;;;11.52;;
23596;SDS011;40226;50.874;4.394;2024-03-22T13:44:51;19.05;;;11.38;;
23596;SDS011;40226;50.874;4.394;2024-03-22T13:47:16;25.65;;;12.45;;
23596;SDS011;40226;50.874;4.394;2024-03-22T13:49:43;24.25;;;12.73;;
23596;SDS011;40226;50.874;4.394;2024-03-22T13:52:10;24.65;;;12.45;;
23596;SDS011;40226;50.874;4.394;2024-03-22T13:54:36;31.25;;;11.95;;
23596;SDS011;40226;50.874;4.394;2024-03-22T13:57:02;22.17;;;11.52;;
23596;SDS011;40226;50.874;4.394;2024-03-22T13:59:28;26.00;;;12.40;;
23596;SDS011;40226;50.874;4.394;2024-03-22T14:01:54;23.42;;;12.45;;
23596;SDS011;40226;50.874;4.394;2024-03-22T14:04:21;24.67;;;11.90;;
23596;SDS011;40226;50.874;4.394;2024-03-22T14:06:51;26.02;;;12.57;;
23596;SDS011;40226;50.874;4.394;2024-03-22T14:09:17;28.73;;;12.20;;
23596;SDS011;40226;50.874;4.394;2024-03-22T14:11:45;22.40;;;11.98;;
23596;SDS011;40226;50.874;4.394;2024-03-22T14:14:14;21.13;;;11.95;;
23596;SDS011;40226;50.874;4.394;2024-03-22T14:16:40;22.33;;;10.90;;
23596;SDS011;40226;50.874;4.394;2024-03-22T14:19:09;24.40;;;12.43;;
23596;SDS011;40226;50.874;4.394;2024-03-22T14:21:35;22.58;;;11.48;;
23596;SDS011;40226;50.874;4.394;2024-03-22T14:24:03;27.83;;;12.00;;